»·PEaware :: DAL186 KPHX-KSAN

DAL186 :: KPHX-KSAN

FLIGHT INFORMATION

Flight Status: Arrived
Operator:
Delta Air Lines
More flights by this operator :: More flights under this callsign
Pilot: Josh G. (4619)
Aircraft: BOEING 737-800
(B738)
More flights by this aircraft type
Origin: KPHX Phoenix Sky Harbor Intl
United States
Destination: KSAN San Diego Intl-Lindbergh
United States
More flights between these airports :: More routes between these airports
Route: +FYRBD1 MOHAK J2 HOGGZ LUCKI1
File this flight plan on PilotEdge
Remarks:
Altitude:
(Current/Filed)
28,000ft
Speed:
(Current/Filed)
450kts
Departed: 01-Aug-20 12:43 PM
Arrived: 01-Aug-20 01:37 PM
Distance/Time
Traveled:
264nm/0:54
Distance/Time
To Go:
Arrived

Flight Plot

Page will automatically refresh every two minutes.


Map Options




Map Legend


Flown Route
Filed Route
Departure Airport
Arrival Airport
Navaid (VOR, NDB)
Fix

Horizontal Profiles

Position Reports

Time Latitude Longitude Heading Altitude Ground
Speed
01-Aug-20 12:28 33.437788 -111.994897 141 1116ft 0kts
01-Aug-20 12:29 33.437788 -111.994897 141 1116ft 0kts
01-Aug-20 12:30 33.437788 -111.994897 141 1116ft 0kts
01-Aug-20 12:31 33.437788 -111.994897 141 1116ft 0kts
01-Aug-20 12:32 33.437788 -111.994897 141 1116ft 0kts
01-Aug-20 12:33 33.437788 -111.994897 141 1116ft 0kts
01-Aug-20 12:34 33.437788 -111.994897 141 1116ft 0kts
01-Aug-20 12:35 33.437912 -111.995150 94 1117ft 2kts
01-Aug-20 12:36 33.437532 -111.995576 352 1117ft 2kts
01-Aug-20 12:37 33.437486 -111.995569 354 1116ft 0kts
01-Aug-20 12:38 33.437486 -111.995569 354 1116ft 0kts
01-Aug-20 12:39 33.437637 -111.995584 355 1116ft 5kts
01-Aug-20 12:40 33.439016 -111.999075 270 1116ft 22kts
01-Aug-20 12:41 33.438986 -112.008788 269 1116ft 35kts
01-Aug-20 12:42 33.439002 -112.022287 269 1116ft 45kts
01-Aug-20 12:43 33.439897 -112.029682 1 1116ft 0kts
01-Aug-20 12:44 33.440803 -112.029306 70 1116ft 14kts
01-Aug-20 12:45 33.440807 -111.995399 87 1721ft 172kts
01-Aug-20 12:46 33.438748 -111.929674 94 3427ft 228kts
01-Aug-20 12:47 33.417399 -111.853800 136 6127ft 244kts
01-Aug-20 12:48 33.353322 -111.840952 205 8708ft 257kts
01-Aug-20 12:49 33.317193 -111.910755 272 11083ft 271kts
01-Aug-20 12:50 33.339214 -112.005200 272 12079ft 329kts
01-Aug-20 12:51 33.304427 -112.106167 235 14040ft 343kts
01-Aug-20 12:52 33.247500 -112.199816 234 15931ft 351kts
01-Aug-20 12:53 33.189259 -112.295225 233 17659ft 359kts
01-Aug-20 12:54 33.129628 -112.392607 234 19197ft 368kts
01-Aug-20 12:55 33.068433 -112.492267 234 20618ft 378kts
01-Aug-20 12:56 33.005699 -112.594159 234 21944ft 387kts
01-Aug-20 12:57 32.942874 -112.698095 247 23130ft 394kts
01-Aug-20 12:58 32.934644 -112.825576 272 24254ft 396kts
01-Aug-20 12:59 32.918539 -112.956832 262 25325ft 405kts
01-Aug-20 13:00 32.900215 -113.089821 262 26305ft 410kts
01-Aug-20 13:01 32.882405 -113.218998 262 27142ft 415kts
01-Aug-20 13:02 32.863469 -113.355277 262 27933ft 419kts
01-Aug-20 13:03 32.844344 -113.491816 262 27971ft 419kts
01-Aug-20 13:04 32.825033 -113.628617 262 27971ft 420kts
01-Aug-20 13:05 32.806088 -113.761795 261 27973ft 422kts
01-Aug-20 13:06 32.785929 -113.902593 261 27974ft 443kts
01-Aug-20 13:07 32.775236 -114.049767 275 27972ft 455kts
01-Aug-20 13:08 32.780228 -114.202216 274 27954ft 474kts
01-Aug-20 13:09 32.786646 -114.360947 275 27945ft 487kts
01-Aug-20 13:10 32.822767 -114.515857 290 27944ft 490kts
01-Aug-20 13:11 32.864713 -114.667658 288 27935ft 474kts
01-Aug-20 13:12 32.877935 -114.821923 269 27942ft 460kts
01-Aug-20 13:13 32.873975 -114.972637 269 27942ft 449kts
01-Aug-20 13:14 32.870455 -115.119854 269 27932ft 441kts
01-Aug-20 13:15 32.866853 -115.264768 269 27924ft 437kts
01-Aug-20 13:16 32.855976 -115.407588 260 27592ft 442kts
01-Aug-20 13:17 32.833366 -115.556729 259 25542ft 461kts
01-Aug-20 13:18 32.809170 -115.703375 258 22580ft 440kts
01-Aug-20 13:19 32.786107 -115.843127 258 20126ft 425kts
01-Aug-20 13:20 32.775094 -115.981449 263 17763ft 409kts
01-Aug-20 13:21 32.765266 -116.112630 263 15630ft 390kts
01-Aug-20 13:22 32.755954 -116.234903 264 13625ft 343kts
01-Aug-20 13:23 32.747739 -116.341567 264 11931ft 314kts
01-Aug-20 13:24 32.740015 -116.440782 264 10724ft 285kts
01-Aug-20 13:25 32.732369 -116.533309 264 9603ft 274kts
01-Aug-20 13:26 32.723793 -116.621058 264 8453ft 264kts
01-Aug-20 13:27 32.716337 -116.704629 265 7368ft 246kts
01-Aug-20 13:28 32.710353 -116.780423 265 6445ft 224kts
01-Aug-20 13:29 32.697490 -116.853231 249 5358ft 228kts
01-Aug-20 13:30 32.676349 -116.920385 251 4393ft 209kts
01-Aug-20 13:31 32.682115 -116.982675 287 3531ft 188kts
01-Aug-20 13:32 32.696597 -117.038306 286 2718ft 164kts
01-Aug-20 13:33 32.709211 -117.090960 282 1745ft 166kts
01-Aug-20 13:34 32.722379 -117.143620 281 752ft 150kts
01-Aug-20 13:35 32.733186 -117.187889 279 22ft 122kts
01-Aug-20 13:36 32.734874 -117.198981 252 19ft 0kts

Navigation Log

Ident Type
Flight plan parsing failed, navigation log unavailable